Nashville, Illinois
Current Conditions -  °F | °C
As of 12:35 AM on Wednesday 28 Jan 2015 (Local Time) from KENL Reporting Station
Haze Haze  
Wind Chill: 22°   Ceiling: Unl
Heat Index: 28°   Visibility: 5mi
Dew Point: 25°   Wind: 5mph
Humidity: 90%   Direction: 90°E
Pressure: 30.26"   Gusts: NA
Location:  38.34°N, 89.38°W
Report Text: KENL 280635Z AUTO 09004KT 5SM BR CLR M02/M04 A3026 RMK AO2 T10251039
Loading
Personal Weather Stations






























Interactive Weather Map New forecast layout! Learn more

10-Day Weather Forecast

Advertisements
Track Severe Weather on mobile